Terminal Aerodrome Forecast
Issued by NWS Sterling, VA

Home | Current Version | Previous Version | Text Only | Print | Product List | Glossary On
Versions: 1 2 3 4 5 6 7 8 9 10 11 12 13 14 15 16 17 18 19 20
000
FTUS41 KLWX 231500 AAA
TAFBWI
TAF AMD
KBWI 231500Z 2315/2418 28008KT P6SM FEW050
     FM231800 28008KT P6SM BKN050
     FM240100 28007KT P6SM SCT050
     FM240600 32004KT P6SM SCT250
     FM241200 02004KT P6SM FEW250=

USA.gov is the U.S. government's official web portal to all federal, state and local government web resources and services.